Database: COMPET-N - COOP - 3PL - 4PL - CNDOOM

WAD: Doom | Doom 2 | TNT | Plutonia | AV | HR | Scythe | MM | MM2 | Requiem | CE
Category: speed | nmare | max | nm100s | tyson | pacifist | fast | respawn | nomo | misc | built | all
Highscore: ALL | IWAD | PWAD | Country | Continent

Remove: wad | map | category | player | all
MapPlayerTimeDateFilenameCommentsDL
MAP11: Storage FacilityJim Leonard23.002002-03-31es11-023.zip - 293
MAP26: ExcoriationJim Leonard26.002001-06-20rn26-026.zip - 217
E3M1: Hell KeepJim Leonard32.002002-12-18n3s1-032.zip - 306
MAP07: CaughtyardJim Leonard34.002006-01-27ps07-034.zip - 275
MAP11: Storage FacilityJim Leonard36.002001-11-21es11-036.zip - 215
MAP01: System ControlJim Leonard38.002005-07-26es01-038.zip - 478
MAP24: QuarryJim Leonard38.002002-04-01es24-038.zip - 203
MAP01: System ControlJim Leonard40.002002-12-24es01-040.zip - 370
MAP02: SacrificiumJim Leonard42.002002-10-19rs02-042.zip - 215
MAP01: System ControlJim Leonard43.002002-08-10es01-043.zip - 438
MAP01: System ControlJim Leonard47.002002-03-27es01-047.zip - 339
MAP03: InterlockJim Leonard48.002006-01-03mm03s048.zip - 339
MAP12: CraterJim Leonard50.002003-07-07es12-050.zip - 277
MAP24: QuarryJim Leonard53.002002-01-19es24-053.zip - 180
MAP23: Lunar Mining ProjectJim Leonard56.002002-08-03es23-056.zip - 271
E1M2: Nuclear PlantJim Leonard57.002003-06-29n1s2-057.zip - 368
MAP11: HuntedJim Leonard58.002002-05-26ps11-058.zip - 169
MAP01: The TeleporterJim Leonard58.002005-07-17mm01n058.zip - 382
MAP23: Barrels O FunJim Leonard59.002003-02-12ns23-059.zip - 340
MAP17: CompoundJim Leonard59.002003-02-22ps17-059.zip - 181
MAP01: CongoJim Leonard1:01.002008-02-14ps01-101.zip - 546
MAP20: The Forsaken HallJim Leonard1:01.002001-06-23rs20-101.zip - 168
MAP05: The Waste TunnelsJim Leonard1:03.002008-02-24ns05-103.zip - 333
MAP17: Processing AreaJim Leonard1:04.002005-08-03es17-104.zip - 308
MAP11: HuntedJim Leonard1:06.002001-11-19ps11-106.zip - 175
MAP01: System ControlJim Leonard1:06.002001-10-18es01-106.zip - 360
MAP02: Gateway LabJim Leonard1:06.002009-12-22hs02-106.zip - 367
E3M9: WarrensJim Leonard1:07.002002-12-14n3s9-107.zip - 288
MAP04: The FocusJim Leonard1:08.002008-02-22ns04-108.zip - 389
MAP02: SacrificiumJim Leonard1:08.002001-06-20rs02-108.zip - 213
MAP32: Go 2 ItJim Leonard1:09.002008-04-11pn32-109.zip - 202
MAP17: Processing AreaJim Leonard1:09.002003-07-06es17-109.zip - 218
MAP26: BunkerJim Leonard1:10.002003-01-16ps26-110.zip - 268
MAP05: Hells KitchenJim Leonard1:11.002005-07-18mm05s111.zip - 293
MAP01: CongoJim Leonard1:12.002002-09-15ps01-112.zip - 403
E3M3: PandemoniumJim Leonard1:15.002003-07-01n3s3-115.zip - 209
MAP13: The CryptJim Leonard1:16.002008-02-16pn13-116.zip - 275
MAP15: Dead ZoneJim Leonard1:16.002002-08-03es15-116.zip - 285
MAP01: OutpostJim Leonard1:16.832018-12-08m201s116.zip - 280
MAP29: Odyssey of NoisesJim Leonard1:18.002006-06-15ps29-118.zip - 302
MAP19: Shipping/RespawningJim Leonard1:18.002003-02-13es19-118.zip - 287
MAP05: Rites of PassageJim Leonard1:18.002006-09-02m205s118.zip - 321
MAP04: CagedJim Leonard1:18.002007-03-01ps04-118.zip - 355
MAP32: Go 2 ItJim Leonard1:18.002002-10-03pn32-118.zip - 144
MAP14: GenesisJim Leonard1:22.002008-02-15ps14-122.zip - 193
MAP03: Cargo DepotJim Leonard1:24.002007-02-10as03-124.zip - 366
MAP19: Shipping/RespawningJim Leonard1:25.002002-08-04es19-125.zip - 252
MAP29: Odyssey of NoisesJim Leonard1:26.002003-02-21ps29-126.zip - 169
MAP06: Barons LairJim Leonard1:28.002006-01-27ps06-128.zip - 309
E3M4: House Of PainJim Leonard1:29.002003-07-01n3s4-129.zip - 200
MAP29: Odyssey of NoisesJim Leonard1:31.002002-09-16ps29-131.zip - 165
MAP12: CraterJim Leonard1:31.002001-11-21es12-131.zip - 226
MAP16: Deepest ReachesJim Leonard1:31.002003-03-16es16-131.zip - 283
MAP03: AztecJim Leonard1:33.002001-11-20ps03-133.zip - 345
MAP29: Odyssey of NoisesJim Leonard1:34.002002-09-16ps29-134.zip - 178
MAP16: Deepest ReachesJim Leonard1:34.002003-03-01es16-134.zip - 222
MAP17: Processing AreaJim Leonard1:36.002002-08-03es17-136.zip - 228
MAP20: The Death DomainJim Leonard1:37.002008-02-18ps20-137.zip - 283
MAP23: Lunar Mining ProjectJim Leonard1:37.002001-11-25es23-137.zip - 204
MAP16: Deepest ReachesJim Leonard1:38.002003-03-01es16-138.zip - 224
MAP14: AquaductJim Leonard1:38.002006-01-22mm14n138.zip - 324
MAP10: The Black GateJim Leonard1:38.002019-06-03rs10-138.zip - 122
MAP22: HabitatJim Leonard1:40.002005-08-09es22-140.zip - 218
MAP15: Dead ZoneJim Leonard1:41.002002-01-19es15-141.zip - 189
E1M3: Toxin RefineryJim Leonard1:41.342018-11-28n1s3-141.zip - 261
MAP16: Deepest ReachesJim Leonard1:42.002002-08-03es16-142.zip - 219
MAP10: Refueling BaseJim Leonard1:43.662018-11-24ns10-143.zip - 218
MAP22: HabitatJim Leonard1:48.002005-08-09es22-148.zip - 224
MAP25: Chaos ZoneJim Leonard1:48.002006-12-20rn25-148.zip - 274
E2M6: Halls Of The DamnedJim Leonard1:52.002002-11-24n2s6-152.zip - 221
MAP31: PharaohJim Leonard1:54.002005-08-04es31-154.zip - 306
MAP28: The SewersJim Leonard1:55.002002-09-17ps28-155.zip - 295
E1M7: Computer StationJim Leonard1:58.002002-09-21n1s7-158.zip - 213
E2M2: Containment AreaJim Leonard1:58.002003-06-16n2s2-158.zip - 277
MAP09: AbattoireJim Leonard1:58.002005-07-23pn09-158.zip - 279
MAP10: RedemptionJim Leonard2:00.002002-09-11es10-200.zip - 287
E1M7: Computer StationJim Leonard2:01.002002-09-20n1s7-201.zip - 224
E2M5: Command CenterJim Leonard2:02.002002-09-22n2s5-202.zip - 202
MAP16: Deepest ReachesJim Leonard2:02.002001-11-21es16-202.zip - 202
MAP03: Power ControlJim Leonard2:05.002002-09-08es03-205.zip - 259
E1M7: Computer StationJim Leonard2:08.002002-09-15n1s7-208.zip - 235
MAP12: The FactoryJim Leonard2:08.002008-02-24ns12-208.zip - 325
MAP13: Nukage ProcessingJim Leonard2:09.002005-08-09es13-209.zip - 293
MAP01: OutpostJim Leonard2:13.002003-05-06m201s213.zip - 368
MAP28: The SewersJim Leonard2:14.002002-09-16ps28-214.zip - 194
MAP02: The BridgeJim Leonard2:17.002005-12-02mm02n217.zip - 231
E2M7: Spawning VatsJim Leonard2:25.002002-09-23n2s7-225.zip - 208
MAP04: WormholeJim Leonard2:29.002005-08-02es04-229.zip - 326
MAP20: Mountain DepotJim Leonard2:31.002007-01-02mm20n231.zip - 244
MAP03: Poison ProcessingJim Leonard2:31.002014-02-11rs03-231.zip - 325
MAP24: The ChasmJim Leonard2:33.002002-07-29ns24-233.zip - 193
MAP28: Fetals RemainsJim Leonard2:34.002007-02-06rn28-234.zip - 313
MAP04: SeclusionJim Leonard2:39.002007-02-10as04-239.zip - 293
MAP31: Doorway to QuakeJim Leonard2:39.002001-09-18rn31-239.zip - 150
MAP09: The PitJim Leonard2:40.002008-02-22ns09-240.zip - 321
MAP13: Nukage ProcessingJim Leonard2:44.002002-08-03es13-244.zip - 237
MAP18: MillJim Leonard2:52.002005-08-07es18-252.zip - 302
MAP06: Open SeasonJim Leonard2:52.002011-08-21es06-252.zip - 318
MAP10: The Black GateJim Leonard3:05.002001-11-15rs10-305.zip - 248
MAP10: RedemptionJim Leonard3:13.002001-10-20es10-313.zip - 214
MAP19: Shipping/RespawningJim Leonard3:14.002001-11-25es19-314.zip - 225
MAP17: Processing AreaJim Leonard3:26.002001-11-21es17-326.zip - 241
MAP01: CongoJim Leonard3:27.002001-11-20ps01-327.zip - 371
MAP18: MillJim Leonard3:28.002002-03-28es18-328.zip - 199
MAP04: FireworksJim Leonard3:32.002013-08-05rs04-332.zip - 286
MAP08: MetalJim Leonard3:33.002011-08-07es08-333.zip - 301
MAP31S: Cyberden Secret ExitJim Leonard3:44.002006-06-11pn31-344.zip - 290
MAP03: Power ControlJim Leonard3:47.002001-11-24es03-347.zip - 231
MAP25: Barons DenJim Leonard3:56.002002-08-21tn25-356.zip - 277
MAP08: StigmataJim Leonard3:57.002006-12-22m208n357.zip - 279
MAP31: PharaohJim Leonard4:02.002001-11-25es31-402.zip - 227
MAP13: Nukage ProcessingJim Leonard4:03.002001-11-25es13-403.zip - 222
MAP29: River StyxJim Leonard4:13.002002-08-11tn29-413.zip - 208
MAP04: FireworksJim Leonard4:21.002005-12-27rs04-421.zip - 242
MAP26: Between Scattered CorpsesJim Leonard4:32.002007-01-08mm26n432.zip - 277
MAP06: The PowerstationJim Leonard4:34.002005-07-17mm06s434.zip - 213
MAP17: House of ThornJim Leonard4:37.002007-01-03mm17n437.zip - 266
MAP26: BallistyxJim Leonard4:45.002002-08-11tn26-445.zip - 283
MAP11: Sewer ShutdownJim Leonard4:59.002007-01-22m211n459.zip - 282
MAP22: RubiconJim Leonard5:00.002011-01-02as22-500.zip - 327
MAP05: HangerJim Leonard5:04.002002-03-28es05-504.zip - 306
MAP32: CaribbeanJim Leonard5:11.002002-09-08es32-511.zip - 281
MAP27: Mount PainJim Leonard5:11.002002-08-20tn27-511.zip - 202
MAP18: MillJim Leonard5:17.002001-11-25es18-517.zip - 229
MAP14: Steel WorksJim Leonard5:20.002003-07-06es14-520.zip - 285
MAP05: Core InfectionJim Leonard5:22.002011-01-24hs05-522.zip - 317
MAP17: Dens of IniquityJim Leonard5:54.002006-12-11rs17-554.zip - 267
MAP23: HatredJim Leonard6:02.002007-01-21rn23-602.zip - 268
MAP14: Steel WorksJim Leonard6:07.002002-03-30es14-607.zip - 220
MAP06: Open SeasonJim Leonard6:16.002001-06-08tn06-616.zip - 221
MAP09: Deep Down BelowJim Leonard6:31.002002-06-20rs09-631.zip - 172
MAP16: The NephilimJim Leonard6:40.002009-12-24m216s640.zip - 282
MAP32: The Hidden Slime FactoryJim Leonard6:45.002007-01-02mm32n645.zip - 277
MAP04: RatamahattaJim Leonard7:06.432018-12-31m204s706.zip - 351
MAP03: ...And Hell BeneathJim Leonard7:11.002008-12-24m203s711.zip - 338
MAP20: Central ProcessingJim Leonard7:18.002002-08-10tn20-718.zip - 244
MAP03: Poison ProcessingJim Leonard7:19.002001-06-26rn03-719.zip - 216
MAP31: Killer ColoursJim Leonard7:22.002011-01-17as31-722.zip - 277
MAP22: ArachnophobiaJim Leonard7:53.002007-10-19rn22-753.zip - 285
MAP07: FrustrationJim Leonard7:59.002007-01-19m207n759.zip - 315
MAP22: The EscapeJim Leonard8:22.002007-01-19mm22n822.zip - 167
MAP10: Toxic TouchJim Leonard8:42.002008-12-18as10-842.zip - 264
MAP14: The PortalJim Leonard8:48.002015-04-12rs14-848.zip - 343
MAP07: Not That SimpleJim Leonard8:55.002006-12-30mm07n855.zip - 290
MAP06: nataS ot etubirTJim Leonard8:56.002008-04-06rs06-856.zip - 310
MAP18: Base of ThornJim Leonard9:24.002008-04-11rs18-924.zip - 262
MAP21: Administration CenterJim Leonard9:28.002002-08-24es21-928.zip - 235
EP3: Inferno (E3M1 - E3M9)Jim Leonard9:35.002003-07-05e3ns0935.zip - 220
MAP15S: Last Resort Secret ExitJim Leonard9:50.002008-01-02rs15s950.zip - 281
MAP13: Town of the DeadJim Leonard10:02.002005-12-23rn131002.zip - 277
MAP08: The ReactorJim Leonard10:27.002007-10-18rn081027.zip - 272
MAP16: Escape from ChaosJim Leonard10:28.002007-02-05rn161028.zip - 258
MAP19: Alien ResurrectionJim Leonard10:35.002011-01-23as191035.zip - 282
MAP21: Den of the SkullJim Leonard10:50.002001-10-08rn211050.zip - 253
MAP29: DownerJim Leonard10:57.002008-12-20rn291057.zip - 288
MAP05: The CanyonJim Leonard11:50.002019-06-01rs051150.zip - 135
MAP05: The CanyonJim Leonard11:50.002019-06-01rs051150.zip - 123
EP2: TNT Episode 2 (MAP11 - MAP20)Jim Leonard44:36.002012-07-074436es11.zip - 297
Remove: wad | map | category | player | all